PWSweather.com
Personal Weather Stations
Station Observations
TARRYHILL
Tarrytown, NY 10591

Tarrytown, NY 10591

Lat: 41.05185, Lon: -73.85296

Elevation: 341

Station Type: Davis Vantage Vue

www.tarrytownnyweather.com

High Low Average
Temperature 45.5°F7.5°F 32.8°F0.4°F 37.8°F3.2°F
Dew Point 40.6°F4.8°F 31.4°F-0.3°F 35.9°F2.2°F
Winds 7.5 mph SW12.1 mph SW Calm Calm 1.1 mph 1.8 mph
Wind Gusts 13.0 mph20.9 mph -- 2.3 mph3.7 mph
Humidity 97% 83% 93%
Pressure 29.91 in1012.90 in 29.74 in1007.10 in -
Precipitation 0.76 in19.30 in - -
Hour Temp Dew Point Humidity Winds Wind Gusts Pressure Precip Precip Rate Daily Precip Total
12:00 AM 33.5°F0.8°C 32.0°F0.0°C 94% 5.9 mph SW9.5 kmh SW 10.0 mph16.1 kmh 29.81 in1009.5 mb 0.00 in0.0 mm 0.00 in/hr0.0 mm/hr 0.00 in0.0 mm
12:10 AM 33.3°F0.7°C 31.8°F-0.1°C 94% 7.5 mph SW12.1 kmh SW 12.0 mph19.3 kmh 29.79 in1008.8 mb 0.00 in0.0 mm 0.00 in/hr0.0 mm/hr 0.00 in0.0 mm
12:20 AM 33.2°F0.7°C 31.7°F-0.2°C 94% 4.0 mph S6.4 kmh S 9.0 mph14.5 kmh 29.79 in1008.8 mb 0.00 in0.0 mm 0.00 in/hr0.0 mm/hr 0.00 in0.0 mm
12:30 AM 33.1°F0.6°C 31.6°F-0.2°C 94% 3.6 mph WSW5.8 kmh WSW 6.0 mph9.7 kmh 29.80 in1009.1 mb 0.00 in0.0 mm 0.00 in/hr0.0 mm/hr 0.00 in0.0 mm
12:40 AM 33.1°F0.6°C 31.5°F-0.3°C 94% 2.7 mph S4.3 kmh S 4.0 mph6.4 kmh 29.80 in1009.1 mb 0.00 in0.0 mm 0.00 in/hr0.0 mm/hr 0.00 in0.0 mm
12:50 AM 32.9°F0.5°C 31.4°F-0.3°C 94% 4.8 mph SW7.7 kmh SW 11.0 mph17.7 kmh 29.81 in1009.5 mb 0.00 in0.0 mm 0.00 in/hr0.0 mm/hr 0.00 in0.0 mm
01:00 AM 32.9°F0.5°C 31.6°F-0.2°C 95% 4.8 mph S7.7 kmh S 6.0 mph9.7 kmh 29.80 in1009.1 mb 0.00 in0.0 mm 0.00 in/hr0.0 mm/hr 0.00 in0.0 mm
01:10 AM 32.8°F0.4°C 31.5°F-0.3°C 95% 2.0 mph SSW3.2 kmh SSW 4.0 mph6.4 kmh 29.79 in1008.8 mb 0.00 in0.0 mm 0.00 in/hr0.0 mm/hr 0.00 in0.0 mm
01:20 AM 32.8°F0.4°C 31.5°F-0.3°C 95% 1.9 mph SSW3.1 kmh SSW 6.0 mph9.7 kmh 29.79 in1008.8 mb 0.00 in0.0 mm 0.00 in/hr0.0 mm/hr 0.00 in0.0 mm
01:30 AM 32.9°F0.5°C 31.6°F-0.2°C 95% 1.1 mph WSW1.8 kmh WSW 2.0 mph3.2 kmh 29.79 in1008.8 mb 0.00 in0.0 mm 0.00 in/hr0.0 mm/hr 0.00 in0.0 mm
01:40 AM 32.8°F0.4°C 31.6°F-0.2°C 95% 6.8 mph SW10.9 kmh SW 13.0 mph20.9 kmh 29.77 in1008.1 mb 0.00 in0.0 mm 0.00 in/hr0.0 mm/hr 0.00 in0.0 mm
01:50 AM 33.0°F0.6°C 31.7°F-0.2°C 95% 1.8 mph S2.9 kmh S 2.0 mph3.2 kmh 29.78 in1008.5 mb 0.00 in0.0 mm 0.00 in/hr0.0 mm/hr 0.00 in0.0 mm
02:00 AM 33.0°F0.6°C 31.7°F-0.2°C 95% 3.5 mph SSE5.6 kmh SSE 6.0 mph9.7 kmh 29.78 in1008.5 mb 0.00 in0.0 mm 0.00 in/hr0.0 mm/hr 0.00 in0.0 mm
02:10 AM 33.1°F0.6°C 31.8°F-0.1°C 95% 1.2 mph WSW1.9 kmh WSW 4.0 mph6.4 kmh 29.77 in1008.1 mb 0.00 in0.0 mm 0.00 in/hr0.0 mm/hr 0.00 in0.0 mm
02:20 AM 33.1°F0.6°C 31.8°F-0.1°C 95% 3.2 mph S5.1 kmh S 4.0 mph6.4 kmh 29.77 in1008.1 mb 0.00 in0.0 mm 0.00 in/hr0.0 mm/hr 0.00 in0.0 mm
02:30 AM 33.1°F0.6°C 31.8°F-0.1°C 95% 2.0 mph SSW3.2 kmh SSW 3.0 mph4.8 kmh 29.76 in1007.8 mb 0.00 in0.0 mm 0.00 in/hr0.0 mm/hr 0.00 in0.0 mm
02:40 AM 33.2°F0.7°C 31.9°F-0.1°C 95% 0.8 mph SSW1.3 kmh SSW 3.0 mph4.8 kmh 29.76 in1007.8 mb 0.00 in0.0 mm 0.00 in/hr0.0 mm/hr 0.00 in0.0 mm
02:50 AM 33.2°F0.7°C 31.9°F-0.1°C 95% 3.0 mph SSW4.8 kmh SSW 5.0 mph8.0 kmh 29.76 in1007.8 mb 0.00 in0.0 mm 0.00 in/hr0.0 mm/hr 0.00 in0.0 mm
03:00 AM 33.3°F0.7°C 32.0°F0.0°C 95% 0.6 mph S1.0 kmh S 1.0 mph1.6 kmh 29.75 in1007.5 mb 0.00 in0.0 mm 0.00 in/hr0.0 mm/hr 0.00 in0.0 mm
03:10 AM 33.3°F0.7°C 32.0°F0.0°C 95% 1.9 mph E3.1 kmh E 4.0 mph6.4 kmh 29.75 in1007.5 mb 0.00 in0.0 mm 0.00 in/hr0.0 mm/hr 0.00 in0.0 mm
03:20 AM 33.4°F0.8°C 32.1°F0.1°C 95% 1.5 mph WSW2.4 kmh WSW 3.0 mph4.8 kmh 29.75 in1007.5 mb 0.00 in0.0 mm 0.00 in/hr0.0 mm/hr 0.00 in0.0 mm
03:30 AM 33.4°F0.8°C 32.1°F0.1°C 95% 1.4 mph WSW2.3 kmh WSW 4.0 mph6.4 kmh 29.75 in1007.5 mb 0.00 in0.0 mm 0.00 in/hr0.0 mm/hr 0.00 in0.0 mm
03:40 AM 33.3°F0.7°C 31.8°F-0.1°C 94% 0.2 mph WSW0.3 kmh WSW 4.0 mph6.4 kmh 29.75 in1007.5 mb 0.00 in0.0 mm 0.00 in/hr0.0 mm/hr 0.00 in0.0 mm
03:50 AM 33.4°F0.8°C 32.1°F0.1°C 95% 0.3 mph W0.5 kmh W -- 29.74 in1007.1 mb 0.00 in0.0 mm 0.00 in/hr0.0 mm/hr 0.00 in0.0 mm
04:00 AM 33.4°F0.8°C 31.8°F-0.1°C 94% Calm Calm 1.0 mph1.6 kmh 29.74 in1007.1 mb 0.00 in0.0 mm 0.00 in/hr0.0 mm/hr 0.00 in0.0 mm
04:10 AM 33.3°F0.7°C 32.0°F0.0°C 95% 0.6 mph SW1.0 kmh SW 2.0 mph3.2 kmh 29.75 in1007.5 mb 0.00 in0.0 mm 0.00 in/hr0.0 mm/hr 0.00 in0.0 mm
04:20 AM 33.3°F0.7°C 32.0°F0.0°C 95% 0.7 mph SW1.1 kmh SW 2.0 mph3.2 kmh 29.77 in1008.1 mb 0.00 in0.0 mm 0.00 in/hr0.0 mm/hr 0.00 in0.0 mm
04:30 AM 33.3°F0.7°C 32.0°F0.0°C 95% 0.9 mph SW1.4 kmh SW 2.0 mph3.2 kmh 29.77 in1008.1 mb 0.00 in0.0 mm 0.00 in/hr0.0 mm/hr 0.00 in0.0 mm
04:40 AM 33.3°F0.7°C 32.0°F0.0°C 95% Calm Calm -- 29.77 in1008.1 mb 0.00 in0.0 mm 0.00 in/hr0.0 mm/hr 0.00 in0.0 mm
04:50 AM 33.3°F0.7°C 32.0°F0.0°C 95% 1.0 mph WSW1.6 kmh WSW 2.0 mph3.2 kmh 29.77 in1008.1 mb 0.00 in0.0 mm 0.00 in/hr0.0 mm/hr 0.00 in0.0 mm
05:00 AM 33.3°F0.7°C 32.0°F0.0°C 95% 0.4 mph SW0.6 kmh SW 1.0 mph1.6 kmh 29.78 in1008.5 mb 0.00 in0.0 mm 0.00 in/hr0.0 mm/hr 0.00 in0.0 mm
05:10 AM 33.4°F0.8°C 32.1°F0.1°C 95% 0.3 mph SSE0.5 kmh SSE -- 29.77 in1008.1 mb 0.00 in0.0 mm 0.00 in/hr0.0 mm/hr 0.00 in0.0 mm
05:20 AM 33.4°F0.8°C 32.1°F0.1°C 95% 0.3 mph SW0.5 kmh SW 1.0 mph1.6 kmh 29.78 in1008.5 mb 0.00 in0.0 mm 0.00 in/hr0.0 mm/hr 0.00 in0.0 mm
05:30 AM 33.4°F0.8°C 32.1°F0.1°C 95% 0.8 mph SW1.3 kmh SW 2.0 mph3.2 kmh 29.78 in1008.5 mb 0.00 in0.0 mm 0.00 in/hr0.0 mm/hr 0.00 in0.0 mm
05:40 AM 33.4°F0.8°C 32.1°F0.1°C 95% 0.7 mph S1.1 kmh S 1.0 mph1.6 kmh 29.79 in1008.8 mb 0.00 in0.0 mm 0.00 in/hr0.0 mm/hr 0.00 in0.0 mm
05:50 AM 33.4°F0.8°C 32.2°F0.1°C 95% Calm Calm -- 29.79 in1008.8 mb 0.00 in0.0 mm 0.00 in/hr0.0 mm/hr 0.00 in0.0 mm
06:00 AM 33.5°F0.8°C 32.2°F0.1°C 95% Calm Calm -- 29.79 in1008.8 mb 0.18 in4.6 mm 0.22 in/hr5.6 mm/hr 0.18 in4.6 mm
06:10 AM 33.5°F0.8°C 32.2°F0.1°C 95% Calm Calm 1.0 mph1.6 kmh 29.79 in1008.8 mb 0.00 in0.0 mm 0.00 in/hr0.0 mm/hr 0.18 in4.6 mm
06:20 AM 33.6°F0.9°C 32.3°F0.2°C 95% 0.3 mph SSE0.5 kmh SSE 1.0 mph1.6 kmh 29.78 in1008.5 mb 0.00 in0.0 mm 0.00 in/hr0.0 mm/hr 0.18 in4.6 mm
06:30 AM 33.7°F0.9°C 32.4°F0.2°C 95% 0.1 mph S0.2 kmh S 1.0 mph1.6 kmh 29.78 in1008.5 mb 0.00 in0.0 mm 0.00 in/hr0.0 mm/hr 0.18 in4.6 mm
06:40 AM 33.7°F0.9°C 32.7°F0.4°C 96% 0.2 mph SSE0.3 kmh SSE 2.0 mph3.2 kmh 29.79 in1008.8 mb 0.00 in0.0 mm 0.00 in/hr0.0 mm/hr 0.18 in4.6 mm
06:50 AM 33.7°F0.9°C 32.7°F0.4°C 96% 1.6 mph SW2.6 kmh SW 2.0 mph3.2 kmh 29.79 in1008.8 mb 0.00 in0.0 mm 0.00 in/hr0.0 mm/hr 0.18 in4.6 mm
07:00 AM 33.8°F1.0°C 32.8°F0.4°C 96% 1.6 mph WSW2.6 kmh WSW 3.0 mph4.8 kmh 29.80 in1009.1 mb 0.00 in0.0 mm 0.00 in/hr0.0 mm/hr 0.18 in4.6 mm
07:10 AM 33.8°F1.0°C 32.8°F0.4°C 96% 0.8 mph SSW1.3 kmh SSW 2.0 mph3.2 kmh 29.80 in1009.1 mb 0.00 in0.0 mm 0.00 in/hr0.0 mm/hr 0.18 in4.6 mm
07:20 AM 34.0°F1.1°C 33.0°F0.6°C 96% 0.8 mph S1.3 kmh S 3.0 mph4.8 kmh 29.80 in1009.1 mb 0.00 in0.0 mm 0.00 in/hr0.0 mm/hr 0.18 in4.6 mm
07:30 AM 34.2°F1.2°C 33.1°F0.6°C 96% 0.8 mph S1.3 kmh S 2.0 mph3.2 kmh 29.80 in1009.1 mb 0.00 in0.0 mm 0.00 in/hr0.0 mm/hr 0.18 in4.6 mm
07:40 AM 34.4°F1.3°C 33.4°F0.8°C 96% 0.7 mph SW1.1 kmh SW 1.0 mph1.6 kmh 29.81 in1009.5 mb 0.00 in0.0 mm 0.00 in/hr0.0 mm/hr 0.18 in4.6 mm
07:50 AM 34.6°F1.4°C 33.6°F0.9°C 96% 1.2 mph SW1.9 kmh SW 2.0 mph3.2 kmh 29.81 in1009.5 mb 0.00 in0.0 mm 0.00 in/hr0.0 mm/hr 0.18 in4.6 mm
08:00 AM 34.8°F1.6°C 33.7°F0.9°C 96% 0.2 mph SE0.3 kmh SE 1.0 mph1.6 kmh 29.82 in1009.8 mb 0.00 in0.0 mm 0.00 in/hr0.0 mm/hr 0.18 in4.6 mm
08:10 AM 35.0°F1.7°C 34.0°F1.1°C 96% 1.5 mph SSW2.4 kmh SSW 3.0 mph4.8 kmh 29.82 in1009.8 mb 0.00 in0.0 mm 0.00 in/hr0.0 mm/hr 0.18 in4.6 mm
08:20 AM 35.2°F1.8°C 34.2°F1.2°C 96% 3.1 mph SW5.0 kmh SW 7.0 mph11.3 kmh 29.83 in1010.2 mb 0.01 in0.3 mm 0.06 in/hr1.5 mm/hr 0.19 in4.8 mm
08:30 AM 35.4°F1.9°C 34.1°F1.2°C 95% 3.0 mph SSW4.8 kmh SSW 6.0 mph9.7 kmh 29.84 in1010.5 mb 0.01 in0.3 mm 0.06 in/hr1.5 mm/hr 0.20 in5.1 mm
08:40 AM 35.6°F2.0°C 34.3°F1.3°C 95% 4.9 mph SW7.9 kmh SW 7.0 mph11.3 kmh 29.85 in1010.8 mb 0.02 in0.5 mm 0.12 in/hr3.0 mm/hr 0.22 in5.6 mm
08:50 AM 35.7°F2.1°C 34.4°F1.3°C 95% 3.0 mph SW4.8 kmh SW 5.0 mph8.0 kmh 29.84 in1010.5 mb 0.01 in0.3 mm 0.06 in/hr1.5 mm/hr 0.23 in5.8 mm
09:00 AM 35.8°F2.1°C 34.5°F1.4°C 95% 1.1 mph S1.8 kmh S 5.0 mph8.0 kmh 29.84 in1010.5 mb 0.01 in0.3 mm 0.01 in/hr0.3 mm/hr 0.24 in6.1 mm
09:10 AM 36.0°F2.2°C 34.7°F1.5°C 95% 0.7 mph SE1.1 kmh SE 1.0 mph1.6 kmh 29.85 in1010.8 mb 0.01 in0.3 mm 0.06 in/hr1.5 mm/hr 0.25 in6.4 mm
09:20 AM 36.5°F2.5°C 35.2°F1.8°C 95% 0.3 mph SE0.5 kmh SE 1.0 mph1.6 kmh 29.84 in1010.5 mb 0.01 in0.3 mm 0.06 in/hr1.5 mm/hr 0.26 in6.6 mm
09:30 AM 36.8°F2.7°C 35.5°F1.9°C 95% 0.9 mph WSW1.4 kmh WSW 4.0 mph6.4 kmh 29.84 in1010.5 mb 0.01 in0.3 mm 0.06 in/hr1.5 mm/hr 0.27 in6.9 mm
09:40 AM 37.0°F2.8°C 35.7°F2.1°C 95% 2.0 mph SW3.2 kmh SW 3.0 mph4.8 kmh 29.86 in1011.2 mb 0.01 in0.3 mm 0.06 in/hr1.5 mm/hr 0.28 in7.1 mm
09:50 AM 37.5°F3.1°C 36.2°F2.3°C 95% 0.4 mph WNW0.6 kmh WNW 1.0 mph1.6 kmh 29.85 in1010.8 mb 0.01 in0.3 mm 0.06 in/hr1.5 mm/hr 0.29 in7.4 mm
10:00 AM 38.0°F3.3°C 36.4°F2.4°C 94% 1.9 mph W3.1 kmh W 3.0 mph4.8 kmh 29.86 in1011.2 mb 0.01 in0.3 mm 0.01 in/hr0.3 mm/hr 0.29 in7.4 mm
10:10 AM 38.1°F3.4°C 36.5°F2.5°C 94% 3.7 mph S6.0 kmh S 8.0 mph12.9 kmh 29.86 in1011.2 mb 0.01 in0.3 mm 0.06 in/hr1.5 mm/hr 0.30 in7.6 mm
10:20 AM 38.5°F3.6°C 36.9°F2.7°C 94% 2.9 mph SW4.7 kmh SW 7.0 mph11.3 kmh 29.86 in1011.2 mb 0.02 in0.5 mm 0.12 in/hr3.0 mm/hr 0.32 in8.1 mm
10:30 AM 39.0°F3.9°C 37.1°F2.8°C 93% 3.3 mph SSE5.3 kmh SSE 7.0 mph11.3 kmh 29.86 in1011.2 mb 0.02 in0.5 mm 0.12 in/hr3.0 mm/hr 0.33 in8.4 mm
10:40 AM 39.2°F4.0°C 37.0°F2.8°C 92% 5.0 mph WSW8.0 kmh WSW 7.0 mph11.3 kmh 29.86 in1011.2 mb 0.01 in0.3 mm 0.06 in/hr1.5 mm/hr 0.34 in8.6 mm
10:50 AM 39.2°F4.0°C 37.1°F2.8°C 92% 2.5 mph SW4.0 kmh SW 4.0 mph6.4 kmh 29.87 in1011.5 mb 0.01 in0.3 mm 0.06 in/hr1.5 mm/hr 0.35 in8.9 mm
11:00 AM 39.3°F4.1°C 37.4°F3.0°C 93% 1.5 mph S2.4 kmh S 4.0 mph6.4 kmh 29.87 in1011.5 mb 0.01 in0.3 mm 0.01 in/hr0.3 mm/hr 0.36 in9.1 mm
11:10 AM 39.5°F4.2°C 37.4°F3.0°C 92% 0.7 mph WSW1.1 kmh WSW 3.0 mph4.8 kmh 29.86 in1011.2 mb 0.00 in0.0 mm 0.00 in/hr0.0 mm/hr 0.36 in9.1 mm
11:20 AM 39.8°F4.3°C 37.4°F3.0°C 91% 2.7 mph WSW4.3 kmh WSW 3.0 mph4.8 kmh 29.87 in1011.5 mb 0.01 in0.3 mm 0.06 in/hr1.5 mm/hr 0.37 in9.4 mm
11:30 AM 39.9°F4.4°C 37.5°F3.1°C 91% 1.1 mph SW1.8 kmh SW 2.0 mph3.2 kmh 29.86 in1011.2 mb 0.00 in0.0 mm 0.00 in/hr0.0 mm/hr 0.37 in9.4 mm
11:40 AM 40.4°F4.7°C 38.3°F3.5°C 92% 0.3 mph WSW0.5 kmh WSW 1.0 mph1.6 kmh 29.86 in1011.2 mb 0.01 in0.3 mm 0.06 in/hr1.5 mm/hr 0.38 in9.7 mm
11:50 AM 40.7°F4.8°C 38.3°F3.5°C 91% 0.9 mph SSW1.4 kmh SSW 2.0 mph3.2 kmh 29.86 in1011.2 mb 0.01 in0.3 mm 0.06 in/hr1.5 mm/hr 0.39 in9.9 mm
12:00 PM 40.7°F4.8°C 38.3°F3.5°C 91% 0.4 mph SW0.6 kmh SW 2.0 mph3.2 kmh 29.85 in1010.8 mb 0.00 in0.0 mm 0.00 in/hr0.0 mm/hr 0.39 in9.9 mm
12:10 PM 40.9°F4.9°C 38.4°F3.6°C 91% Calm Calm -- 29.84 in1010.5 mb 0.01 in0.3 mm 0.06 in/hr1.5 mm/hr 0.40 in10.2 mm
12:20 PM 41.5°F5.3°C 39.1°F3.9°C 91% 0.1 mph SW0.2 kmh SW 1.0 mph1.6 kmh 29.84 in1010.5 mb 0.00 in0.0 mm 0.00 in/hr0.0 mm/hr 0.40 in10.2 mm
12:30 PM 41.3°F5.2°C 38.9°F3.8°C 91% 1.0 mph W1.6 kmh W 3.0 mph4.8 kmh 29.86 in1011.2 mb 0.01 in0.3 mm 0.06 in/hr1.5 mm/hr 0.41 in10.4 mm
12:40 PM 41.2°F5.1°C 39.0°F3.9°C 92% Calm Calm 1.0 mph1.6 kmh 29.86 in1011.2 mb 0.00 in0.0 mm 0.00 in/hr0.0 mm/hr 0.41 in10.4 mm
12:50 PM 41.4°F5.2°C 39.2°F4.0°C 92% Calm Calm -- 29.83 in1010.2 mb 0.00 in0.0 mm 0.00 in/hr0.0 mm/hr 0.41 in10.4 mm
01:00 PM 41.9°F5.5°C 39.5°F4.2°C 91% 0.4 mph WSW0.6 kmh WSW -- 29.83 in1010.2 mb 0.00 in0.0 mm 0.00 in/hr0.0 mm/hr 0.41 in10.4 mm
01:10 PM 42.1°F5.6°C 39.7°F4.3°C 91% 0.8 mph SW1.3 kmh SW 1.0 mph1.6 kmh 29.82 in1009.8 mb 0.00 in0.0 mm 0.00 in/hr0.0 mm/hr 0.41 in10.4 mm
01:20 PM 42.2°F5.7°C 39.5°F4.2°C 90% 1.0 mph W1.6 kmh W 2.0 mph3.2 kmh 29.84 in1010.5 mb 0.00 in0.0 mm 0.00 in/hr0.0 mm/hr 0.41 in10.4 mm
01:30 PM 42.6°F5.9°C 40.2°F4.6°C 91% 0.2 mph SSW0.3 kmh SSW 4.0 mph6.4 kmh 29.84 in1010.5 mb 0.00 in0.0 mm 0.00 in/hr0.0 mm/hr 0.41 in10.4 mm
01:40 PM 43.3°F6.3°C 40.0°F4.4°C 88% 0.5 mph W0.8 kmh W 1.0 mph1.6 kmh 29.84 in1010.5 mb 0.00 in0.0 mm 0.00 in/hr0.0 mm/hr 0.41 in10.4 mm
01:50 PM 43.4°F6.3°C 40.3°F4.6°C 89% 0.3 mph SW0.5 kmh SW 1.0 mph1.6 kmh 29.83 in1010.2 mb 0.00 in0.0 mm 0.00 in/hr0.0 mm/hr 0.41 in10.4 mm
02:00 PM 43.4°F6.3°C 39.8°F4.3°C 87% 0.5 mph SW0.8 kmh SW 1.0 mph1.6 kmh 29.83 in1010.2 mb 0.00 in0.0 mm 0.00 in/hr0.0 mm/hr 0.41 in10.4 mm
02:10 PM 43.6°F6.4°C 40.0°F4.4°C 87% 1.4 mph WSW2.3 kmh WSW 2.0 mph3.2 kmh 29.84 in1010.5 mb 0.00 in0.0 mm 0.00 in/hr0.0 mm/hr 0.41 in10.4 mm
02:20 PM 44.0°F6.7°C 40.1°F4.5°C 86% 0.8 mph WNW1.3 kmh WNW 2.0 mph3.2 kmh 29.82 in1009.8 mb 0.00 in0.0 mm 0.00 in/hr0.0 mm/hr 0.41 in10.4 mm
02:30 PM 44.4°F6.9°C 40.2°F4.6°C 85% 0.2 mph E0.3 kmh E -- 29.82 in1009.8 mb 0.00 in0.0 mm 0.00 in/hr0.0 mm/hr 0.41 in10.4 mm
02:40 PM 44.8°F7.1°C 40.3°F4.6°C 84% Calm Calm -- 29.82 in1009.8 mb 0.00 in0.0 mm 0.00 in/hr0.0 mm/hr 0.41 in10.4 mm
02:50 PM 45.5°F7.5°C 40.6°F4.8°C 83% 0.2 mph SW0.3 kmh SW 1.0 mph1.6 kmh 29.82 in1009.8 mb 0.00 in0.0 mm 0.00 in/hr0.0 mm/hr 0.41 in10.4 mm
03:00 PM 44.7°F7.1°C 40.1°F4.5°C 84% Calm Calm -- 29.84 in1010.5 mb 0.00 in0.0 mm 0.00 in/hr0.0 mm/hr 0.41 in10.4 mm
03:10 PM 44.1°F6.7°C 39.6°F4.2°C 84% 0.8 mph WSW1.3 kmh WSW 1.0 mph1.6 kmh 29.84 in1010.5 mb 0.00 in0.0 mm 0.00 in/hr0.0 mm/hr 0.41 in10.4 mm
03:20 PM 43.6°F6.4°C 39.4°F4.1°C 85% Calm Calm -- 29.85 in1010.8 mb 0.00 in0.0 mm 0.00 in/hr0.0 mm/hr 0.41 in10.4 mm
03:30 PM 43.3°F6.3°C 39.4°F4.1°C 86% 0.3 mph W0.5 kmh W 1.0 mph1.6 kmh 29.87 in1011.5 mb 0.00 in0.0 mm 0.00 in/hr0.0 mm/hr 0.41 in10.4 mm
03:40 PM 43.0°F6.1°C 39.1°F3.9°C 86% 0.2 mph W0.3 kmh W -- 29.88 in1011.9 mb 0.00 in0.0 mm 0.00 in/hr0.0 mm/hr 0.41 in10.4 mm
03:50 PM 42.5°F5.8°C 38.6°F3.7°C 86% Calm Calm -- 29.87 in1011.5 mb 0.00 in0.0 mm 0.00 in/hr0.0 mm/hr 0.41 in10.4 mm
04:00 PM 42.1°F5.6°C 38.5°F3.6°C 87% Calm Calm -- 29.87 in1011.5 mb 0.00 in0.0 mm 0.00 in/hr0.0 mm/hr 0.41 in10.4 mm
04:10 PM 42.0°F5.6°C 38.7°F3.7°C 88% Calm Calm -- 29.86 in1011.2 mb 0.00 in0.0 mm 0.00 in/hr0.0 mm/hr 0.41 in10.4 mm
04:20 PM 41.9°F5.5°C 38.6°F3.7°C 88% Calm Calm -- 29.87 in1011.5 mb 0.00 in0.0 mm 0.00 in/hr0.0 mm/hr 0.41 in10.4 mm
04:30 PM 41.9°F5.5°C 38.9°F3.8°C 89% 0.1 mph NE0.2 kmh NE -- 29.86 in1011.2 mb 0.00 in0.0 mm 0.00 in/hr0.0 mm/hr 0.41 in10.4 mm
04:40 PM 42.1°F5.6°C 38.8°F3.8°C 88% 0.2 mph N0.3 kmh N 1.0 mph1.6 kmh 29.86 in1011.2 mb 0.00 in0.0 mm 0.00 in/hr0.0 mm/hr 0.41 in10.4 mm
04:50 PM 41.5°F5.3°C 38.2°F3.4°C 88% Calm Calm -- 29.85 in1010.8 mb 0.00 in0.0 mm 0.00 in/hr0.0 mm/hr 0.41 in10.4 mm
05:00 PM 41.1°F5.1°C 37.8°F3.2°C 88% Calm Calm -- 29.86 in1011.2 mb 0.00 in0.0 mm 0.00 in/hr0.0 mm/hr 0.41 in10.4 mm
05:10 PM 40.9°F4.9°C 37.6°F3.1°C 88% Calm Calm 1.0 mph1.6 kmh 29.86 in1011.2 mb 0.00 in0.0 mm 0.00 in/hr0.0 mm/hr 0.41 in10.4 mm
05:20 PM 40.7°F4.8°C 37.4°F3.0°C 88% Calm Calm -- 29.87 in1011.5 mb 0.00 in0.0 mm 0.00 in/hr0.0 mm/hr 0.41 in10.4 mm
05:30 PM 40.0°F4.4°C 36.7°F2.6°C 88% 1.0 mph E1.6 kmh E 1.0 mph1.6 kmh 29.87 in1011.5 mb 0.00 in0.0 mm 0.00 in/hr0.0 mm/hr 0.41 in10.4 mm
05:40 PM 40.1°F4.5°C 36.8°F2.7°C 88% Calm Calm -- 29.86 in1011.2 mb 0.01 in0.3 mm 0.06 in/hr1.5 mm/hr 0.42 in10.7 mm
05:50 PM 39.6°F4.2°C 36.6°F2.6°C 89% Calm Calm -- 29.87 in1011.5 mb 0.01 in0.3 mm 0.06 in/hr1.5 mm/hr 0.42 in10.7 mm
06:00 PM 39.2°F4.0°C 36.8°F2.7°C 91% Calm Calm -- 29.87 in1011.5 mb 0.01 in0.3 mm 0.01 in/hr0.3 mm/hr 0.43 in10.9 mm
06:10 PM 39.0°F3.9°C 36.6°F2.6°C 91% Calm Calm -- 29.88 in1011.9 mb 0.00 in0.0 mm 0.00 in/hr0.0 mm/hr 0.43 in10.9 mm
06:20 PM 38.7°F3.7°C 36.6°F2.6°C 92% Calm Calm -- 29.88 in1011.9 mb 0.00 in0.0 mm 0.00 in/hr0.0 mm/hr 0.43 in10.9 mm
06:30 PM 38.3°F3.5°C 36.2°F2.3°C 92% Calm Calm -- 29.89 in1012.2 mb 0.00 in0.0 mm 0.00 in/hr0.0 mm/hr 0.43 in10.9 mm
06:40 PM 38.4°F3.6°C 36.8°F2.7°C 94% Calm Calm -- 29.88 in1011.9 mb 0.01 in0.3 mm 0.06 in/hr1.5 mm/hr 0.44 in11.2 mm
06:50 PM 38.7°F3.7°C 37.1°F2.8°C 94% Calm Calm -- 29.88 in1011.9 mb 0.00 in0.0 mm 0.00 in/hr0.0 mm/hr 0.44 in11.2 mm
07:00 PM 39.2°F4.0°C 37.6°F3.1°C 94% Calm Calm -- 29.87 in1011.5 mb 0.00 in0.0 mm 0.00 in/hr0.0 mm/hr 0.44 in11.2 mm
07:10 PM 39.3°F4.1°C 37.7°F3.2°C 94% 0.1 mph SSW0.2 kmh SSW -- 29.87 in1011.5 mb 0.00 in0.0 mm 0.00 in/hr0.0 mm/hr 0.44 in11.2 mm
07:20 PM 39.2°F4.0°C 37.6°F3.1°C 94% 0.2 mph SW0.3 kmh SW 1.0 mph1.6 kmh 29.87 in1011.5 mb 0.00 in0.0 mm 0.00 in/hr0.0 mm/hr 0.44 in11.2 mm
07:30 PM 39.2°F4.0°C 37.6°F3.1°C 94% Calm Calm -- 29.87 in1011.5 mb 0.00 in0.0 mm 0.00 in/hr0.0 mm/hr 0.44 in11.2 mm
07:40 PM 39.5°F4.2°C 38.2°F3.4°C 95% 0.6 mph S1.0 kmh S 1.0 mph1.6 kmh 29.86 in1011.2 mb 0.00 in0.0 mm 0.00 in/hr0.0 mm/hr 0.44 in11.2 mm
07:50 PM 39.5°F4.2°C 38.2°F3.4°C 95% 0.9 mph SSW1.4 kmh SSW 1.0 mph1.6 kmh 29.87 in1011.5 mb 0.00 in0.0 mm 0.00 in/hr0.0 mm/hr 0.44 in11.2 mm
08:00 PM 39.5°F4.2°C 38.2°F3.4°C 95% 0.1 mph SSW0.2 kmh SSW 1.0 mph1.6 kmh 29.87 in1011.5 mb 0.00 in0.0 mm 0.00 in/hr0.0 mm/hr 0.44 in11.2 mm
08:10 PM 39.6°F4.2°C 38.3°F3.5°C 95% 1.7 mph SW2.7 kmh SW 3.0 mph4.8 kmh 29.87 in1011.5 mb 0.00 in0.0 mm 0.00 in/hr0.0 mm/hr 0.44 in11.2 mm
08:20 PM 39.6°F4.2°C 38.3°F3.5°C 95% 0.4 mph SSW0.6 kmh SSW 1.0 mph1.6 kmh 29.88 in1011.9 mb 0.00 in0.0 mm 0.00 in/hr0.0 mm/hr 0.44 in11.2 mm
08:30 PM 39.6°F4.2°C 38.3°F3.5°C 95% 1.1 mph SW1.8 kmh SW 2.0 mph3.2 kmh 29.88 in1011.9 mb 0.00 in0.0 mm 0.00 in/hr0.0 mm/hr 0.44 in11.2 mm
08:40 PM 39.6°F4.2°C 38.3°F3.5°C 95% 1.7 mph SE2.7 kmh SE 4.0 mph6.4 kmh 29.88 in1011.9 mb 0.00 in0.0 mm 0.00 in/hr0.0 mm/hr 0.44 in11.2 mm
08:50 PM 39.6°F4.2°C 38.5°F3.6°C 96% 1.7 mph SSW2.7 kmh SSW 3.0 mph4.8 kmh 29.89 in1012.2 mb 0.00 in0.0 mm 0.00 in/hr0.0 mm/hr 0.44 in11.2 mm
09:00 PM 39.5°F4.2°C 38.5°F3.6°C 96% 1.5 mph WSW2.4 kmh WSW 3.0 mph4.8 kmh 29.89 in1012.2 mb 0.01 in0.3 mm 0.01 in/hr0.3 mm/hr 0.45 in11.4 mm
09:10 PM 39.5°F4.2°C 38.5°F3.6°C 96% 2.4 mph SW3.9 kmh SW 3.0 mph4.8 kmh 29.90 in1012.5 mb 0.00 in0.0 mm 0.00 in/hr0.0 mm/hr 0.45 in11.4 mm
09:20 PM 39.4°F4.1°C 38.4°F3.6°C 96% 1.1 mph S1.8 kmh S 3.0 mph4.8 kmh 29.89 in1012.2 mb 0.00 in0.0 mm 0.00 in/hr0.0 mm/hr 0.45 in11.4 mm
09:30 PM 39.4°F4.1°C 38.4°F3.6°C 96% 1.7 mph WSW2.7 kmh WSW 2.0 mph3.2 kmh 29.89 in1012.2 mb 0.00 in0.0 mm 0.00 in/hr0.0 mm/hr 0.45 in11.4 mm
09:40 PM 39.4°F4.1°C 38.4°F3.6°C 96% 2.0 mph SW3.2 kmh SW 3.0 mph4.8 kmh 29.90 in1012.5 mb 0.01 in0.3 mm 0.06 in/hr1.5 mm/hr 0.46 in11.7 mm
09:50 PM 39.5°F4.2°C 38.5°F3.6°C 96% 1.4 mph SW2.3 kmh SW 3.0 mph4.8 kmh 29.90 in1012.5 mb 0.02 in0.5 mm 0.12 in/hr3.0 mm/hr 0.48 in12.2 mm
10:00 PM 39.4°F4.1°C 38.4°F3.6°C 96% 0.2 mph SSW0.3 kmh SSW 2.0 mph3.2 kmh 29.90 in1012.5 mb 0.02 in0.5 mm 0.02 in/hr0.5 mm/hr 0.50 in12.7 mm
10:10 PM 39.4°F4.1°C 38.3°F3.5°C 96% 0.4 mph SW0.6 kmh SW 1.0 mph1.6 kmh 29.90 in1012.5 mb 0.03 in0.8 mm 0.18 in/hr4.6 mm/hr 0.52 in13.2 mm
10:20 PM 39.3°F4.1°C 38.3°F3.5°C 96% 0.8 mph S1.3 kmh S 2.0 mph3.2 kmh 29.90 in1012.5 mb 0.02 in0.5 mm 0.12 in/hr3.0 mm/hr 0.53 in13.5 mm
10:30 PM 39.4°F4.1°C 38.6°F3.7°C 97% 1.5 mph SSE2.4 kmh SSE 2.0 mph3.2 kmh 29.90 in1012.5 mb 0.02 in0.5 mm 0.12 in/hr3.0 mm/hr 0.55 in14.0 mm
10:40 PM 39.3°F4.1°C 38.5°F3.6°C 97% 0.7 mph SW1.1 kmh SW -- 29.91 in1012.9 mb 0.02 in0.5 mm 0.12 in/hr3.0 mm/hr 0.57 in14.5 mm
10:50 PM 39.3°F4.1°C 38.5°F3.6°C 97% 0.5 mph S0.8 kmh S 2.0 mph3.2 kmh 29.91 in1012.9 mb 0.03 in0.8 mm 0.18 in/hr4.6 mm/hr 0.59 in15.0 mm
11:00 PM 39.3°F4.1°C 38.5°F3.6°C 97% 0.6 mph SW1.0 kmh SW 1.0 mph1.6 kmh 29.91 in1012.9 mb 0.03 in0.8 mm 0.04 in/hr1.0 mm/hr 0.62 in15.7 mm
11:10 PM 39.1°F3.9°C 38.3°F3.5°C 97% 0.1 mph S0.2 kmh S 2.0 mph3.2 kmh 29.90 in1012.5 mb 0.02 in0.5 mm 0.12 in/hr3.0 mm/hr 0.64 in16.3 mm
11:20 PM 39.0°F3.9°C 38.2°F3.4°C 97% 0.3 mph WSW0.5 kmh WSW 1.0 mph1.6 kmh 29.90 in1012.5 mb 0.01 in0.3 mm 0.06 in/hr1.5 mm/hr 0.65 in16.5 mm
11:30 PM 38.9°F3.8°C 38.1°F3.4°C 97% 0.4 mph SW0.6 kmh SW 3.0 mph4.8 kmh 29.90 in1012.5 mb 0.02 in0.5 mm 0.12 in/hr3.0 mm/hr 0.67 in17.0 mm
11:40 PM 38.8°F3.8°C 38.0°F3.3°C 97% 0.7 mph SW1.1 kmh SW 4.0 mph6.4 kmh 29.89 in1012.2 mb 0.01 in0.3 mm 0.06 in/hr1.5 mm/hr 0.68 in17.3 mm
11:50 PM 38.7°F3.7°C 38.0°F3.3°C 97% Calm Calm 1.0 mph1.6 kmh 29.89 in1012.2 mb 0.02 in0.5 mm 0.12 in/hr3.0 mm/hr 0.70 in17.8 mm